Time;durP1;ratioP1;P1;durP2;ratioP2;P2;SDS_P1;SDS_P2;PMS_P1;PMS_P2;Temp;Humidity;BMP_temperature;BMP_pressure;BME280_temperature;BME280_humidity;BME280_pressure;Samples;Min_cycle;Max_cycle;Signal;HPM_P1;HPM_P2
2022/02/12 00:01:52;;;;;;;;;;;;;;;0.92;86.40;99873.08;219401;1278;24295;-69
2022/02/12 00:07:15;;;;;;;;;;;;;;;1.00;86.22;99873.23;219412;1278;24145;-70
2022/02/12 00:13:11;;;;;;;;;;;;;;;1.07;86.25;99876.42;219631;1278;22695;-69
2022/02/12 00:18:22;;;;;;;;;;;;;;;1.11;86.11;99879.54;219520;1277;22593;-69
2022/02/12 00:23:52;;;;;;;;;;;;;;;1.15;86.14;99888.04;219216;1278;24288;-70
2022/02/12 00:29:20;;;;;;;;;;;;;;;1.22;85.93;99905.45;219542;1278;26326;-71
2022/02/12 00:35:14;;;;;;;;;;;;;;;1.24;85.86;99910.86;218990;1279;23797;-70
2022/02/12 00:40:42;;;;;;;;;;;;;;;1.25;85.90;99911.75;218723;1278;24241;-69
2022/02/12 00:46:07;;;;;;;;;;;;;;;1.29;85.90;99925.81;218643;1278;25310;-70
2022/02/12 00:51:52;;;;;;;;;;;;;;;1.32;85.99;99929.55;218372;1279;22648;-70
2022/02/12 01:03:03;;;;;;;;;;;;;;;;;;;;;
2022/02/12 01:08:16;;;;;;;;;;;;;;;1.28;85.68;99939.66;218782;1278;24203;-70
2022/02/12 01:13:44;;;;;;;;;;;;;;;;;;;;;
2022/02/12 01:19:38;;;;;;;;;;;;;;;1.26;85.78;99942.26;218809;1278;22575;-70
2022/02/12 01:24:39;;;;;;;;;;;;;;;1.25;85.85;99942.37;218684;1278;22628;-70
2022/02/12 01:30:30;;;;;;;;;;;;;;;1.27;85.77;99944.05;218597;1278;22565;-69
2022/02/12 01:36:07;;;;;;;;;;;;;;;1.27;85.89;99948.34;218622;1278;22562;-69
2022/02/12 01:41:30;;;;;;;;;;;;;;;1.25;85.66;99951.71;219131;1278;24847;-69
2022/02/12 01:46:35;;;;;;;;;;;;;;;1.22;85.79;99959.98;218606;1278;22550;-70
2022/02/12 01:52:46;;;;;;;;;;;;;;;1.19;85.82;99961.45;218585;1279;22695;-69
2022/02/12 01:58:09;;;;;;;;;;;;;;;1.19;85.95;99974.15;218359;1279;22664;-70
2022/02/12 02:03:13;;;;;;;;;;;;;;;1.19;85.93;99982.92;219586;1279;24358;-70
2022/02/12 02:08:18;;;;;;;;;;;;;;;1.21;86.02;99986.42;219466;1279;22690;-70
2022/02/12 02:13:50;;;;;;;;;;;;;;;1.23;86.25;99999.50;218601;1279;22705;-69
2022/02/12 02:19:29;;;;;;;;;;;;;;;1.26;86.11;100006.91;218498;1279;23787;-70
2022/02/12 02:24:42;;;;;;;;;;;;;;;1.26;85.78;100009.27;219598;1279;26510;-70
2022/02/12 02:30:03;;;;;;;;;;;;;;;1.25;85.64;100020.16;218633;1279;25265;-69
2022/02/12 02:35:18;;;;;;;;;;;;;;;1.27;85.70;100023.48;218572;1280;25486;-69
2022/02/12 02:40:24;;;;;;;;;;;;;;;1.27;85.52;100029.65;218616;1279;25472;-70
2022/02/12 02:45:46;;;;;;;;;;;;;;;1.28;85.24;100029.42;218773;1279;25371;-70
2022/02/12 02:56:38;;;;;;;;;;;;;;;1.29;84.85;100050.50;218712;1278;22781;-69
2022/02/12 03:02:31;;;;;;;;;;;;;;;1.28;84.94;100062.56;219519;1278;22528;-70
2022/02/12 03:08:02;;;;;;;;;;;;;;;;;;;;;
2022/02/12 03:13:39;;;;;;;;;;;;;;;1.05;83.72;100079.16;219667;1279;26088;-70
2022/02/12 03:26:31;;;;;;;;;;;;;;;0.52;83.41;100113.48;218728;1279;25256;-70
2022/02/12 03:32:58;;;;;;;;;;;;;;;0.40;83.65;100130.11;219651;1278;23494;-70
2022/02/12 03:38:33;;;;;;;;;;;;;;;;;;;;;
2022/02/12 03:45:05;;;;;;;;;;;;;;;;;;;;;
2022/02/12 03:50:44;;;;;;;;;;;;;;;0.21;83.21;100152.58;219582;1279;25463;-69
2022/02/12 03:56:16;;;;;;;;;;;;;;;0.08;83.30;100156.46;218485;1281;22563;-70
2022/02/12 04:02:25;;;;;;;;;;;;;;;;;;;;;
2022/02/12 04:08:06;;;;;;;;;;;;;;;-0.22;83.06;100171.61;219594;1277;22633;-70
2022/02/12 04:13:53;;;;;;;;;;;;;;;;;;;;;
2022/02/12 04:20:01;;;;;;;;;;;;;;;-0.43;83.08;100184.31;219541;1278;22674;-70
2022/02/12 04:26:08;;;;;;;;;;;;;;;;;;;;;
2022/02/12 04:38:02;;;;;;;;;;;;;;;-0.79;83.82;100200.27;218592;1277;24282;-70
2022/02/12 04:44:34;;;;;;;;;;;;;;;;;;;;;
2022/02/12 04:50:30;;;;;;;;;;;;;;;-0.98;83.77;100223.77;218559;1278;25379;-70
2022/02/12 05:03:22;;;;;;;;;;;;;;;-0.97;84.22;100242.19;219457;1278;22547;-70
2022/02/12 05:09:34;;;;;;;;;;;;;;;;;;;;;
2022/02/12 05:33:43;;;;;;;;;;;;;;;-0.28;84.09;100272.20;219490;1277;22534;-69
2022/02/12 05:45:33;;;;;;;;;;;;;;;;;;;;;
2022/02/12 05:51:40;;;;;;;;;;;;;;;-0.08;83.69;100292.61;219414;1279;22560;-70
2022/02/12 05:57:26;;;;;;;;;;;;;;;-0.10;83.20;100300.40;218837;1277;22619;-70
2022/02/12 06:03:11;;;;;;;;;;;;;;;-0.13;83.32;100310.58;219658;1277;22550;-70
2022/02/12 06:08:25;;;;;;;;;;;;;;;;;;;;;
2022/02/12 06:14:08;;;;;;;;;;;;;;;-0.17;83.29;100307.84;219740;1278;25315;-71
2022/02/12 06:19:46;;;;;;;;;;;;;;;-0.18;83.47;100313.72;218624;1277;22617;-70
2022/02/12 06:25:16;;;;;;;;;;;;;;;-0.18;83.19;100324.95;219260;1279;25257;-69
2022/02/12 06:30:53;;;;;;;;;;;;;;;-0.12;83.34;100329.55;219673;1278;24298;-69
2022/02/12 06:36:53;;;;;;;;;;;;;;;;;;;;;
2022/02/12 06:42:49;;;;;;;;;;;;;;;-0.05;83.28;100352.61;219670;1277;25593;-70
2022/02/12 06:48:24;;;;;;;;;;;;;;;-0.01;83.21;100363.36;219364;1277;22672;-70
2022/02/12 06:53:49;;;;;;;;;;;;;;;-0.01;83.03;100366.55;219615;1277;25375;-70
2022/02/12 06:59:42;;;;;;;;;;;;;;;;;;;;;
2022/02/12 07:05:32;;;;;;;;;;;;;;;0.09;82.61;100379.10;218768;1277;22531;-69
2022/02/12 07:11:03;;;;;;;;;;;;;;;0.15;82.72;100387.02;219670;1277;24227;-69
2022/02/12 07:22:49;;;;;;;;;;;;;;;0.27;82.26;100400.91;219544;1277;22699;-70
2022/02/12 07:28:22;;;;;;;;;;;;;;;0.34;82.27;100409.02;219485;1277;24246;-70
2022/02/12 07:39:53;;;;;;;;;;;;;;;;;;;;;
2022/02/12 07:46:02;;;;;;;;;;;;;;;;;;;;;
2022/02/12 07:51:56;;;;;;;;;;;;;;;0.45;81.35;100431.18;219562;1277;25481;-70
2022/02/12 07:57:54;;;;;;;;;;;;;;;0.41;81.21;100438.23;219934;1279;25508;-70
2022/02/12 08:23:23;;;;;;;;;;;;;;;;;;;;;
2022/02/12 08:29:52;;;;;;;;;;;;;;;1.01;80.08;100487.83;219704;1277;22618;-69
2022/02/12 08:36:13;;;;;;;;;;;;;;;1.21;80.02;100496.23;218214;1280;22639;-69
2022/02/12 08:42:35;;;;;;;;;;;;;;;;;;;;;
2022/02/12 08:54:42;;;;;;;;;;;;;;;1.40;78.32;100511.17;218627;1277;24981;-69
2022/02/12 09:07:16;;;;;;;;;;;;;;;1.68;77.95;100524.57;218516;1277;22566;-69
2022/02/12 09:12:55;;;;;;;;;;;;;;;1.63;76.89;100528.48;219796;1277;24276;-70
2022/02/12 09:18:31;;;;;;;;;;;;;;;;;;;;;
2022/02/12 09:25:12;;;;;;;;;;;;;;;;;;;;;
2022/02/12 09:36:53;;;;;;;;;;;;;;;2.08;76.83;100538.60;218783;1277;22701;-70
2022/02/12 09:48:35;;;;;;;;;;;;;;;;;;;;;
2022/02/12 09:53:52;;;;;;;;;;;;;;;;;;;;;
2022/02/12 09:59:36;;;;;;;;;;;;;;;2.44;75.85;100548.36;219913;1277;23313;-69
2022/02/12 10:04:57;;;;;;;;;;;;;;;2.54;74.82;100548.32;218584;1276;22531;-68
2022/02/12 10:10:21;;;;;;;;;;;;;;;2.56;74.67;100557.44;218551;1278;24384;-66
2022/02/12 10:15:56;;;;;;;;;;;;;;;2.53;73.58;100552.62;218413;1278;22872;-68
2022/02/12 10:21:25;;;;;;;;;;;;;;;2.68;74.39;100555.33;220038;1277;25255;-69
2022/02/12 10:27:04;;;;;;;;;;;;;;;2.71;73.42;100550.48;220047;1277;25387;-69
2022/02/12 10:32:28;;;;;;;;;;;;;;;2.70;73.65;100548.02;218783;1279;24696;-69
2022/02/12 10:38:16;;;;;;;;;;;;;;;2.91;73.87;100543.06;218561;1277;24146;-70
2022/02/12 10:43:58;;;;;;;;;;;;;;;3.20;73.17;100538.27;218533;1277;23669;-69
2022/02/12 10:49:53;;;;;;;;;;;;;;;3.21;72.62;100527.80;220174;1277;22531;-69
2022/02/12 10:55:15;;;;;;;;;;;;;;;3.31;71.81;100528.17;218381;1279;23934;-70
2022/02/12 11:00:42;;;;;;;;;;;;;;;;;;;;;
2022/02/12 11:06:17;;;;;;;;;;;;;;;3.29;72.49;100516.59;218535;1277;25464;-71
2022/02/12 11:11:35;;;;;;;;;;;;;;;3.41;70.74;100511.09;218233;1277;438640;-69
2022/02/12 11:17:14;;;;;;;;;;;;;;;3.38;70.90;100506.27;218484;1277;24153;-69
2022/02/12 11:22:47;;;;;;;;;;;;;;;3.56;70.00;100500.21;218507;1277;22762;-69
2022/02/12 11:28:36;;;;;;;;;;;;;;;3.67;69.93;100490.98;218848;1277;25441;-70
2022/02/12 11:34:20;;;;;;;;;;;;;;;4.08;70.67;100485.58;218709;1277;23122;-69
2022/02/12 11:40:08;;;;;;;;;;;;;;;4.12;69.28;100480.65;219944;1277;22639;-68
2022/02/12 11:45:16;;;;;;;;;;;;;;;3.84;68.31;100476.38;218536;1277;22550;-68
2022/02/12 11:51:38;;;;;;;;;;;;;;;;;;;;;
2022/02/12 11:57:03;;;;;;;;;;;;;;;2.90;67.91;100460.89;218658;1277;22765;-68
2022/02/12 12:02:40;;;;;;;;;;;;;;;2.63;68.75;100450.39;218307;1277;22555;-68
2022/02/12 12:14:30;;;;;;;;;;;;;;;;;;;;;
2022/02/12 12:19:39;;;;;;;;;;;;;;;2.89;69.39;100419.22;218724;1279;25384;-67
2022/02/12 12:24:47;;;;;;;;;;;;;;;3.10;69.33;100411.44;218455;1281;27286;-68
2022/02/12 12:35:37;;;;;;;;;;;;;;;3.29;68.49;100418.36;218694;1277;22537;-68
2022/02/12 12:41:54;;;;;;;;;;;;;;;;;;;;;
2022/02/12 12:47:39;;;;;;;;;;;;;;;3.52;67.99;100411.48;218733;1277;22558;-68
2022/02/12 12:53:13;;;;;;;;;;;;;;;;;;;;;
2022/02/12 13:04:22;;;;;;;;;;;;;;;3.66;67.10;100381.30;218650;1277;23097;-68
2022/02/12 13:09:45;;;;;;;;;;;;;;;3.71;66.63;100384.11;218597;1277;22534;-68
2022/02/12 13:14:53;;;;;;;;;;;;;;;3.68;66.45;100383.51;218603;1278;25080;-68
2022/02/12 13:20:03;;;;;;;;;;;;;;;3.68;66.38;100367.04;218625;1277;25277;-68
2022/02/12 13:25:12;;;;;;;;;;;;;;;3.62;66.20;100368.08;218612;1277;25318;-68
2022/02/12 13:30:15;;;;;;;;;;;;;;;3.62;66.16;100355.63;218599;1278;25724;-68
2022/02/12 13:35:19;;;;;;;;;;;;;;;3.57;65.63;100350.79;218405;1279;22632;-68
2022/02/12 13:40:54;;;;;;;;;;;;;;;3.53;65.89;100344.88;218637;1278;22663;-68
2022/02/12 13:46:24;;;;;;;;;;;;;;;3.49;65.61;100344.45;218632;1277;22766;-68
2022/02/12 13:51:33;;;;;;;;;;;;;;;3.42;65.59;100350.47;218600;1277;23138;-68
2022/02/12 13:56:38;;;;;;;;;;;;;;;3.43;65.55;100353.32;218657;1277;22550;-69
2022/02/12 14:01:53;;;;;;;;;;;;;;;3.40;65.36;100350.70;218694;1277;25352;-69
2022/02/12 14:06:56;;;;;;;;;;;;;;;3.38;65.41;100338.27;218468;1277;22568;-68
2022/02/12 14:11:58;;;;;;;;;;;;;;;3.37;65.44;100326.79;218710;1277;22553;-69
2022/02/12 14:17:14;;;;;;;;;;;;;;;3.35;65.16;100323.44;218843;1277;22850;-68
2022/02/12 14:22:27;;;;;;;;;;;;;;;3.31;65.21;100328.11;218807;1277;22617;-68
2022/02/12 14:27:50;;;;;;;;;;;;;;;3.24;64.90;100323.67;218823;1278;25424;-69
2022/02/12 14:34:04;;;;;;;;;;;;;;;3.22;64.36;100318.58;218740;1277;22695;-68
2022/02/12 14:39:42;;;;;;;;;;;;;;;3.20;63.83;100303.58;218820;1277;24276;-68
2022/02/12 14:45:04;;;;;;;;;;;;;;;3.14;64.17;100300.59;218679;1279;24242;-68
2022/02/12 14:50:20;;;;;;;;;;;;;;;3.08;64.00;100308.04;218860;1277;24258;-68
2022/02/12 14:56:04;;;;;;;;;;;;;;;3.01;63.60;100304.73;218937;1277;24356;-69
2022/02/12 15:01:18;;;;;;;;;;;;;;;2.93;63.10;100291.52;218890;1277;22651;-68
2022/02/12 15:07:03;;;;;;;;;;;;;;;2.80;63.00;100276.46;218867;1277;25472;-68
2022/02/12 15:12:14;;;;;;;;;;;;;;;2.69;62.95;100257.46;218688;1277;25411;-69
2022/02/12 15:17:29;;;;;;;;;;;;;;;2.55;62.81;100252.09;218779;1278;22769;-69
2022/02/12 15:22:41;;;;;;;;;;;;;;;2.41;62.80;100244.92;218693;1277;22800;-69
2022/02/12 15:27:47;;;;;;;;;;;;;;;2.28;62.63;100240.64;218731;1278;22904;-68
2022/02/12 15:33:06;;;;;;;;;;;;;;;2.12;62.37;100233.26;218739;1277;23827;-68
2022/02/12 15:38:11;;;;;;;;;;;;;;;2.00;62.36;100227.46;218743;1278;22544;-68
2022/02/12 15:43:20;;;;;;;;;;;;;;;1.85;62.35;100223.56;218665;1279;22537;-69
2022/02/12 15:48:47;;;;;;;;;;;;;;;1.64;62.25;100229.27;218704;1279;22632;-69
2022/02/12 15:53:53;;;;;;;;;;;;;;;1.47;62.79;100214.16;218605;1279;22564;-68
2022/02/12 15:59:04;;;;;;;;;;;;;;;1.31;62.77;100210.95;218616;1279;24143;-68
2022/02/12 16:04:06;;;;;;;;;;;;;;;1.11;63.14;100208.45;218613;1279;22672;-69
2022/02/12 16:09:11;;;;;;;;;;;;;;;0.91;63.43;100211.77;218613;1279;24118;-69
2022/02/12 16:14:13;;;;;;;;;;;;;;;0.71;63.66;100207.41;218846;1278;25312;-67
2022/02/12 16:19:15;;;;;;;;;;;;;;;0.52;63.51;100205.34;218797;1278;25356;-69
2022/02/12 16:24:18;;;;;;;;;;;;;;;0.37;63.92;100191.92;218668;1278;25367;-69
2022/02/12 16:29:31;;;;;;;;;;;;;;;0.25;64.02;100191.72;218710;1279;22732;-68
2022/02/12 16:34:39;;;;;;;;;;;;;;;0.11;64.61;100191.60;218767;1278;25256;-68
2022/02/12 16:39:48;;;;;;;;;;;;;;;-0.05;64.78;100190.40;218815;1277;22771;-68
2022/02/12 16:44:50;;;;;;;;;;;;;;;-0.18;65.34;100184.31;218878;1278;22531;-68
2022/02/12 16:50:13;;;;;;;;;;;;;;;-0.31;65.60;100175.84;218788;1278;25313;-68
2022/02/12 16:55:18;;;;;;;;;;;;;;;-0.40;65.61;100179.65;218865;1278;25412;-69
2022/02/12 17:00:29;;;;;;;;;;;;;;;-0.47;66.05;100177.27;218669;1279;22691;-68
2022/02/12 17:05:33;;;;;;;;;;;;;;;-0.55;66.20;100184.75;218602;1279;22572;-68
2022/02/12 17:10:39;;;;;;;;;;;;;;;-0.60;66.26;100189.90;218676;1278;22544;-69
2022/02/12 17:15:54;;;;;;;;;;;;;;;-0.65;66.67;100189.43;218712;1278;22711;-69
2022/02/12 17:21:04;;;;;;;;;;;;;;;-0.71;66.97;100189.48;218913;1278;22687;-68
2022/02/12 17:26:07;;;;;;;;;;;;;;;-0.78;67.23;100181.70;218762;1278;22538;-68
2022/02/12 17:31:18;;;;;;;;;;;;;;;-0.85;67.31;100180.88;218848;1279;22547;-69
2022/02/12 17:36:20;;;;;;;;;;;;;;;-0.91;67.47;100182.60;218709;1278;23921;-68
2022/02/12 17:41:25;;;;;;;;;;;;;;;-0.94;67.37;100172.34;218646;1278;22554;-68
2022/02/12 17:46:32;;;;;;;;;;;;;;;-0.96;67.72;100174.49;218733;1279;22631;-68
2022/02/12 17:51:36;;;;;;;;;;;;;;;-0.99;67.84;100175.58;218592;1280;22616;-67
2022/02/12 17:56:42;;;;;;;;;;;;;;;-1.04;67.89;100178.02;218671;1279;22681;-69
2022/02/12 18:01:47;;;;;;;;;;;;;;;-1.09;68.14;100173.36;218793;1279;22702;-69
2022/02/12 18:06:53;;;;;;;;;;;;;;;-1.15;68.20;100172.29;218210;1281;22702;-68
2022/02/12 18:11:55;;;;;;;;;;;;;;;-1.20;68.34;100166.19;218702;1277;24441;-69
2022/02/12 18:16:58;;;;;;;;;;;;;;;-1.25;68.57;100162.55;218830;1278;22652;-68
2022/02/12 18:22:00;;;;;;;;;;;;;;;-1.29;68.77;100155.55;218704;1279;24333;-69
2022/02/12 18:27:07;;;;;;;;;;;;;;;-1.34;68.92;100150.48;218421;1281;22563;-68
2022/02/12 18:32:10;;;;;;;;;;;;;;;-1.39;68.85;100148.03;218934;1278;24311;-68
2022/02/12 18:37:13;;;;;;;;;;;;;;;-1.43;69.07;100144.51;218715;1279;22524;-61
2022/02/12 18:42:27;;;;;;;;;;;;;;;-1.46;69.02;100134.08;219530;1277;22547;-66
2022/02/12 18:47:38;;;;;;;;;;;;;;;-1.48;69.04;100129.79;218666;1278;22541;-68
2022/02/12 18:52:43;;;;;;;;;;;;;;;-1.50;69.24;100125.14;218692;1277;22707;-68
2022/02/12 18:57:45;;;;;;;;;;;;;;;-1.53;69.12;100117.79;218446;1279;22916;-69
2022/02/12 19:02:47;;;;;;;;;;;;;;;-1.58;69.20;100110.02;218694;1279;25461;-68
2022/02/12 19:07:50;;;;;;;;;;;;;;;-1.62;69.42;100102.61;218741;1279;26487;-69
2022/02/12 19:12:52;;;;;;;;;;;;;;;-1.66;69.51;100102.60;218636;1279;26225;-68
2022/02/12 19:17:57;;;;;;;;;;;;;;;-1.70;69.72;100098.52;218702;1279;26401;-68
2022/02/12 19:23:19;;;;;;;;;;;;;;;-1.74;69.73;100098.42;218708;1279;22604;-68
2022/02/12 19:28:26;;;;;;;;;;;;;;;-1.77;70.17;100093.52;218856;1278;26359;-68
2022/02/12 19:33:32;;;;;;;;;;;;;;;-1.78;70.01;100091.55;218710;1277;25867;-68
2022/02/12 19:38:35;;;;;;;;;;;;;;;-1.74;70.34;100080.88;218753;1278;22545;-69
2022/02/12 19:43:37;;;;;;;;;;;;;;;-1.76;70.00;100078.14;218966;1278;25261;-69
2022/02/12 19:48:42;;;;;;;;;;;;;;;-1.85;70.18;100074.83;218524;1281;22634;-68
2022/02/12 19:53:51;;;;;;;;;;;;;;;-1.94;70.31;100067.52;218769;1278;22555;-69
2022/02/12 19:58:53;;;;;;;;;;;;;;;-1.99;70.53;100069.70;218933;1278;22551;-69
2022/02/12 20:03:57;;;;;;;;;;;;;;;-2.03;70.75;100065.77;218625;1278;26373;-69
2022/02/12 20:09:00;;;;;;;;;;;;;;;-2.08;70.78;100065.99;218825;1278;23071;-69
2022/02/12 20:14:11;;;;;;;;;;;;;;;-2.12;70.73;100058.77;218820;1278;24225;-67
2022/02/12 20:19:19;;;;;;;;;;;;;;;-2.17;71.13;100056.67;218840;1279;23034;-69
2022/02/12 20:24:21;;;;;;;;;;;;;;;-2.23;70.98;100043.52;218815;1279;22501;-68
2022/02/12 20:29:23;;;;;;;;;;;;;;;-2.26;71.06;100038.06;218844;1278;24254;-69
2022/02/12 20:34:26;;;;;;;;;;;;;;;-2.28;70.86;100035.70;218796;1279;24345;-69
2022/02/12 20:39:32;;;;;;;;;;;;;;;-2.27;70.94;100031.23;218459;1281;24437;-70
2022/02/12 20:44:36;;;;;;;;;;;;;;;-2.25;70.89;100028.29;218889;1278;24382;-68
2022/02/12 20:49:40;;;;;;;;;;;;;;;-2.22;71.03;100024.90;218724;1279;22560;-68
2022/02/12 20:54:42;;;;;;;;;;;;;;;-2.21;71.11;100016.69;218946;1278;22563;-67
2022/02/12 20:59:44;;;;;;;;;;;;;;;-2.22;70.92;100016.99;218678;1279;22642;-68
2022/02/12 21:04:47;;;;;;;;;;;;;;;-2.23;70.84;100013.56;218378;1281;22587;-69
2022/02/12 21:09:59;;;;;;;;;;;;;;;-2.21;70.96;100008.85;218794;1278;22533;-67
2022/02/12 21:15:02;;;;;;;;;;;;;;;-2.21;70.95;100002.88;218548;1281;22615;-69
2022/02/12 21:20:07;;;;;;;;;;;;;;;-2.22;71.07;99996.65;218691;1278;25313;-68
2022/02/12 21:25:10;;;;;;;;;;;;;;;-2.24;70.97;99986.88;218732;1278;24151;-69
2022/02/12 21:30:16;;;;;;;;;;;;;;;-2.27;71.07;99984.80;218849;1278;22486;-70
2022/02/12 21:35:24;;;;;;;;;;;;;;;-2.30;71.15;99977.80;218800;1277;25349;-69
2022/02/12 21:40:26;;;;;;;;;;;;;;;-2.34;71.05;99974.06;218726;1278;25346;-69
2022/02/12 21:45:28;;;;;;;;;;;;;;;-2.37;71.16;99974.96;218691;1278;25116;-69
2022/02/12 21:50:37;;;;;;;;;;;;;;;-2.43;71.29;99971.55;218877;1279;25216;-68
2022/02/12 21:55:39;;;;;;;;;;;;;;;-2.48;71.49;99972.02;218820;1278;22541;-68
2022/02/12 22:00:41;;;;;;;;;;;;;;;-2.55;71.65;99970.11;218642;1280;25924;-68
2022/02/12 22:05:45;;;;;;;;;;;;;;;-2.62;71.79;99969.38;218855;1279;22551;-69
2022/02/12 22:10:47;;;;;;;;;;;;;;;-2.70;71.86;99970.53;218761;1279;22719;-68
2022/02/12 22:16:01;;;;;;;;;;;;;;;-2.75;71.83;99970.30;218822;1279;22562;-69
2022/02/12 22:21:03;;;;;;;;;;;;;;;-2.79;72.01;99961.11;218700;1277;22564;-69
2022/02/12 22:26:08;;;;;;;;;;;;;;;-2.82;72.07;99956.17;218618;1279;24336;-69
2022/02/12 22:31:12;;;;;;;;;;;;;;;-2.83;72.20;99945.42;218654;1279;24715;-69
2022/02/12 22:36:19;;;;;;;;;;;;;;;-2.81;72.33;99943.50;218826;1278;24296;-69
2022/02/12 22:41:21;;;;;;;;;;;;;;;-2.81;72.48;99941.05;218733;1278;24366;-70
2022/02/12 22:46:26;;;;;;;;;;;;;;;-2.81;72.29;99938.33;218831;1277;25451;-70
2022/02/12 22:51:29;;;;;;;;;;;;;;;-2.78;72.61;99935.55;218966;1280;24482;-68
2022/02/12 22:56:32;;;;;;;;;;;;;;;-2.77;72.57;99931.08;218727;1278;22570;-68
2022/02/12 23:01:34;;;;;;;;;;;;;;;-2.77;72.49;99935.08;218573;1281;22573;-69
2022/02/12 23:06:36;;;;;;;;;;;;;;;-2.76;72.57;99927.85;218557;1278;22578;-68
2022/02/12 23:11:42;;;;;;;;;;;;;;;-2.74;72.63;99924.88;217976;1281;272309;-70
2022/02/12 23:16:50;;;;;;;;;;;;;;;-2.74;72.70;99921.54;218594;1279;22656;-69
2022/02/12 23:21:52;;;;;;;;;;;;;;;-2.72;72.62;99918.67;218550;1279;22650;-69
2022/02/12 23:26:54;;;;;;;;;;;;;;;-2.69;72.58;99915.77;218575;1279;25450;-69
2022/02/12 23:32:05;;;;;;;;;;;;;;;-2.67;72.55;99915.00;218564;1279;22688;-68
2022/02/12 23:37:10;;;;;;;;;;;;;;;-2.68;72.52;99916.08;218730;1280;25287;-68
2022/02/12 23:42:28;;;;;;;;;;;;;;;-2.72;72.64;99909.21;218643;1279;25527;-69
2022/02/12 23:47:33;;;;;;;;;;;;;;;-2.76;72.66;99900.20;218352;1281;27457;-68
2022/02/12 23:52:40;;;;;;;;;;;;;;;-2.76;72.65;99900.96;218821;1278;25229;-69
2022/02/12 23:57:42;;;;;;;;;;;;;;;-2.75;72.51;99899.24;218424;1281;24337;-69
